createdAt,value
2023-04-18T19:25:28.170Z,996.40
2023-04-18T19:26:21.246Z,996.43
2023-04-18T19:27:18.265Z,996.42
2023-04-18T19:31:46.676Z,996.43
2023-04-18T19:32:24.142Z,996.37
2023-04-18T19:33:24.131Z,996.40
2023-04-18T19:34:24.115Z,996.41
2023-04-18T19:35:26.019Z,996.48
2023-04-18T19:36:24.071Z,996.50
2023-04-18T19:37:24.050Z,996.48
2023-04-18T19:38:24.024Z,996.48
2023-04-18T19:46:17.106Z,996.57
2023-04-18T19:47:16.958Z,996.51
2023-04-18T19:48:17.551Z,996.55
2023-04-18T19:49:17.142Z,996.53
2023-04-18T19:50:19.662Z,996.59
2023-04-18T19:51:22.416Z,996.53
2023-04-18T19:52:18.038Z,996.54
2023-04-18T19:53:16.940Z,996.59
2023-04-18T19:54:16.918Z,996.64
2023-04-18T19:55:16.899Z,996.51
2023-04-18T19:58:35.668Z,996.59
2023-04-18T19:59:35.660Z,996.59
2023-04-18T20:00:35.657Z,996.59
2023-04-18T20:01:35.748Z,996.54
2023-04-18T20:02:35.714Z,996.54
2023-04-18T20:03:36.697Z,996.55
2023-04-18T20:04:35.832Z,996.57
2023-04-18T20:05:35.766Z,996.49
2023-04-18T20:06:35.584Z,996.51
2023-04-18T20:07:35.575Z,996.54
2023-04-18T20:08:35.600Z,996.48
2023-04-18T20:09:36.098Z,996.54
2023-04-18T20:10:35.603Z,996.49
2023-04-18T20:11:35.553Z,996.44
2023-04-18T20:12:35.522Z,996.54
2023-04-18T20:13:35.523Z,996.49
2023-04-18T20:14:35.517Z,996.54
2023-04-18T20:15:36.098Z,996.58
2023-04-18T20:16:35.596Z,996.52
2023-04-18T20:17:36.312Z,996.61
2023-04-18T20:18:35.466Z,996.54
2023-04-18T20:19:35.459Z,996.54
2023-04-18T20:20:35.459Z,996.58
2023-04-18T20:21:35.554Z,996.56
2023-04-18T20:22:37.594Z,996.57
2023-04-18T20:23:35.426Z,996.49
2023-04-18T20:24:35.403Z,996.58
2023-04-18T20:25:35.408Z,996.51
2023-04-18T20:26:35.384Z,996.57
2023-04-18T20:27:35.370Z,996.58
2023-04-18T20:28:36.106Z,996.51
2023-04-18T20:29:35.444Z,996.53
2023-04-18T20:30:37.753Z,996.56
2023-04-18T20:31:35.323Z,996.55
2023-04-18T20:32:35.346Z,996.52
2023-04-18T20:33:35.326Z,996.56
2023-04-18T20:34:36.110Z,996.58
2023-04-18T20:35:37.600Z,996.59
2023-04-18T20:36:35.440Z,996.58
2023-04-18T20:37:35.266Z,996.49
2023-04-18T20:38:35.256Z,996.53
2023-04-18T20:39:35.249Z,996.58
2023-04-18T20:40:35.262Z,996.65
2023-04-18T20:41:35.270Z,996.57
2023-04-18T20:42:35.251Z,996.59
2023-04-18T20:43:35.287Z,996.57
2023-04-18T20:44:35.207Z,996.62
2023-04-18T20:45:35.198Z,996.56
2023-04-18T20:46:35.288Z,996.67
2023-04-18T20:47:35.252Z,996.62
2023-04-18T20:48:37.113Z,996.63
2023-04-18T20:49:36.650Z,996.65
2023-04-18T20:50:35.170Z,996.65
2023-04-18T20:51:35.125Z,996.65
2023-04-18T20:52:35.113Z,996.72
2023-04-18T20:53:35.115Z,996.59
2023-04-18T20:54:35.134Z,996.63
2023-04-18T20:55:36.245Z,996.62
2023-04-18T20:56:37.684Z,996.62
2023-04-18T20:57:35.055Z,996.62
2023-04-18T20:58:35.055Z,996.68
2023-04-18T20:59:35.086Z,996.63
2023-04-18T21:00:35.127Z,996.68
2023-04-18T21:01:37.373Z,996.69
2023-04-18T21:02:35.855Z,996.70
2023-04-18T21:03:35.258Z,996.69
2023-04-18T21:04:35.052Z,996.70
2023-04-18T21:05:35.003Z,996.75
2023-04-18T21:06:34.976Z,996.69
2023-04-18T21:07:35.005Z,996.71
2023-04-18T21:08:36.719Z,996.72
2023-04-18T21:09:35.645Z,996.71
2023-04-18T21:10:34.937Z,996.72
2023-04-18T21:11:34.915Z,996.79
2023-04-18T21:12:34.904Z,996.75
2023-04-18T21:13:34.966Z,996.76
2023-04-18T21:14:36.700Z,996.82
2023-04-18T21:15:36.147Z,996.86
2023-04-18T21:16:35.014Z,996.80
2023-04-18T21:17:34.888Z,996.80
2023-04-18T21:18:34.833Z,996.81
2023-04-18T21:19:34.836Z,996.81
2023-04-18T21:20:34.879Z,996.80
2023-04-18T21:21:36.316Z,996.80
2023-04-18T21:22:36.699Z,996.83
2023-04-18T21:23:34.778Z,996.85
2023-04-18T21:24:34.783Z,996.82
2023-04-18T21:25:34.785Z,996.80
2023-04-18T21:26:34.799Z,996.85
2023-04-18T21:27:36.629Z,996.84
2023-04-18T21:28:35.619Z,996.79
2023-04-18T21:29:34.772Z,996.79
2023-04-18T21:30:34.721Z,996.78
2023-04-18T21:31:34.770Z,996.81
2023-04-18T21:32:34.691Z,996.84
2023-04-18T21:33:35.620Z,996.80
2023-04-18T21:34:36.703Z,996.81
2023-04-18T21:35:36.142Z,996.81
2023-04-18T21:36:34.641Z,996.88
2023-04-18T21:37:34.643Z,996.83
2023-04-18T21:38:34.627Z,996.82
2023-04-18T21:39:34.678Z,996.82
2023-04-18T21:40:36.284Z,996.89
2023-04-18T21:41:35.127Z,996.85
2023-04-18T21:42:34.638Z,996.86
2023-04-18T21:43:34.576Z,996.86
2023-04-18T21:44:34.563Z,996.86
2023-04-18T21:45:34.624Z,996.83
2023-04-18T21:46:35.134Z,996.87
2023-04-18T21:47:34.638Z,996.84
2023-04-18T21:48:35.630Z,996.82
2023-04-18T21:49:34.502Z,996.84
2023-04-18T21:50:34.528Z,996.81
2023-04-18T21:51:34.495Z,996.79
2023-04-18T21:52:34.484Z,996.77
2023-04-18T21:53:36.150Z,996.80
2023-04-18T21:54:35.132Z,996.79
2023-04-18T21:55:35.128Z,996.75
2023-04-18T21:56:34.432Z,996.76
2023-04-18T21:57:34.429Z,996.77
2023-04-18T21:58:34.422Z,996.75
2023-04-18T21:59:35.140Z,996.74
2023-04-18T22:00:35.122Z,996.79
2023-04-18T22:01:34.576Z,996.74
2023-04-18T22:02:34.510Z,996.72
2023-04-18T22:03:34.581Z,996.76
2023-04-18T22:04:34.399Z,996.78
2023-04-18T22:05:34.369Z,996.71
2023-04-18T22:06:36.149Z,996.79
2023-04-18T22:07:40.825Z,996.76
2023-04-18T22:08:35.364Z,996.75
2023-04-18T22:09:34.328Z,996.78
2023-04-18T22:10:34.306Z,996.77
2023-04-18T22:11:34.286Z,996.77
2023-04-18T22:12:35.125Z,996.76
2023-04-18T22:13:34.362Z,996.73
2023-04-18T22:14:34.360Z,996.71
2023-04-18T22:15:34.238Z,996.73
2023-04-18T22:16:34.289Z,996.68
2023-04-18T22:17:34.277Z,996.70
2023-04-18T22:18:34.204Z,996.69
2023-04-18T22:19:35.640Z,996.61
2023-04-18T22:20:35.213Z,996.77
2023-04-18T22:21:34.236Z,996.72
2023-04-18T22:22:34.185Z,996.73
2023-04-18T22:23:34.155Z,996.72
2023-04-18T22:24:34.137Z,996.72
2023-04-18T22:25:35.178Z,996.67
2023-04-18T22:26:34.213Z,996.69
2023-04-18T22:27:34.172Z,996.69
2023-04-18T22:28:34.102Z,996.71
2023-04-18T22:29:34.093Z,996.69
2023-04-18T22:30:34.147Z,996.61
2023-04-18T22:31:34.081Z,996.64
2023-04-18T22:32:35.716Z,996.70
2023-04-18T22:33:34.667Z,996.66
2023-04-18T22:34:34.109Z,996.69
2023-04-18T22:35:34.045Z,996.62
2023-04-18T22:36:34.013Z,996.70
2023-04-18T22:37:34.009Z,996.63
2023-04-18T22:38:34.675Z,996.64
2023-04-18T22:39:34.034Z,996.67
2023-04-18T22:40:34.040Z,996.70
2023-04-18T22:41:34.000Z,996.72
2023-04-18T22:42:35.637Z,996.70
2023-04-18T22:43:33.945Z,996.73
2023-04-18T22:44:33.926Z,996.72
2023-04-18T22:45:35.188Z,996.76
2023-04-18T22:46:35.407Z,996.72
2023-04-18T22:47:33.978Z,996.72
2023-04-18T22:48:33.888Z,996.76
2023-04-18T22:49:33.866Z,996.76
2023-04-18T22:50:33.858Z,996.71
2023-04-18T22:51:33.883Z,996.78
2023-04-18T22:52:33.864Z,996.84
2023-04-18T22:53:33.913Z,996.84
2023-04-18T22:54:33.826Z,996.81
2023-04-18T22:55:33.816Z,996.86
2023-04-18T22:56:33.826Z,996.86
2023-04-18T22:57:33.875Z,996.86
2023-04-18T22:58:33.870Z,996.86
2023-04-18T22:59:33.989Z,996.84
2023-04-18T23:00:33.928Z,996.82
2023-04-18T23:01:33.794Z,996.83
2023-04-18T23:02:33.825Z,996.76
2023-04-18T23:03:33.845Z,996.84
2023-04-18T23:04:34.745Z,996.83
2023-04-18T23:05:33.751Z,996.81
2023-04-18T23:06:33.820Z,996.81
2023-04-18T23:07:35.315Z,996.82
2023-04-18T23:08:33.670Z,996.82
2023-04-18T23:09:33.670Z,996.77
2023-04-18T23:10:33.663Z,996.81
2023-04-18T23:11:33.745Z,996.80
2023-04-18T23:12:33.663Z,996.84
2023-04-18T23:13:33.662Z,996.78
2023-04-18T23:14:33.624Z,996.79
2023-04-18T23:15:33.613Z,996.85
2023-04-18T23:16:33.615Z,996.81
2023-04-18T23:17:34.216Z,996.75
2023-04-18T23:18:33.594Z,996.78
2023-04-18T23:19:33.598Z,996.78
2023-04-18T23:20:33.550Z,996.78
2023-04-18T23:21:33.557Z,996.76
2023-04-18T23:22:33.561Z,996.74
2023-04-18T23:23:33.525Z,996.75
2023-04-18T23:24:33.598Z,996.79
2023-04-18T23:25:34.782Z,996.82
2023-04-18T23:26:35.174Z,996.78
2023-04-18T23:27:33.487Z,996.82
2023-04-18T23:28:33.499Z,996.79
2023-04-18T23:29:33.482Z,996.80
2023-04-18T23:30:34.160Z,996.82
2023-04-18T23:31:33.539Z,996.81
2023-04-18T23:32:34.267Z,996.80
2023-04-18T23:33:33.495Z,996.80
2023-04-18T23:34:33.401Z,996.80
2023-04-18T23:35:33.389Z,996.80
2023-04-18T23:36:33.441Z,996.78
2023-04-18T23:37:33.417Z,996.82
2023-04-18T23:38:36.158Z,996.82
2023-04-18T23:39:35.249Z,996.78
2023-04-18T23:40:33.348Z,996.77
2023-04-18T23:41:33.343Z,996.79
2023-04-18T23:42:33.323Z,996.75
2023-04-18T23:43:33.391Z,996.73
2023-04-18T23:44:33.329Z,996.78
2023-04-18T23:45:33.320Z,996.80
2023-04-18T23:46:36.337Z,996.74
2023-04-18T23:47:33.314Z,996.73
2023-04-18T23:48:33.259Z,996.75
2023-04-18T23:49:33.261Z,996.73
2023-04-18T23:50:33.225Z,996.76
2023-04-18T23:51:34.685Z,996.70
2023-04-18T23:52:35.194Z,996.75
2023-04-18T23:53:33.234Z,996.72
2023-04-18T23:54:33.204Z,996.73
2023-04-18T23:55:33.180Z,996.72
2023-04-18T23:56:33.250Z,996.75
2023-04-18T23:57:33.252Z,996.77
2023-04-18T23:58:33.239Z,996.73
2023-04-18T23:59:33.819Z,996.74
